createdAt,value
2018-08-12T00:00:44.913Z,99.99
2018-08-12T00:02:16.480Z,99.99
2018-08-12T00:03:48.048Z,99.99
2018-08-12T00:05:19.616Z,99.99
2018-08-12T00:06:51.183Z,99.99
2018-08-12T00:08:22.754Z,99.99
2018-08-12T00:09:54.321Z,99.99
2018-08-12T00:11:25.987Z,99.99
2018-08-12T00:12:57.455Z,99.99
2018-08-12T00:14:29.023Z,99.99
2018-08-12T00:16:00.592Z,99.99
2018-08-12T00:17:32.158Z,99.99
2018-08-12T00:19:03.725Z,99.99
2018-08-12T00:20:35.293Z,99.99
2018-08-12T00:22:06.861Z,99.99
2018-08-12T00:23:39.781Z,99.99
2018-08-12T00:25:09.996Z,99.99
2018-08-12T00:26:41.564Z,99.99
2018-08-12T00:28:13.132Z,99.99
2018-08-12T00:29:44.849Z,99.99
2018-08-12T00:31:16.267Z,99.99
2018-08-12T00:32:47.839Z,99.99
2018-08-12T00:34:19.456Z,99.99
2018-08-12T00:35:50.973Z,99.99
2018-08-12T00:37:22.537Z,99.99
2018-08-12T00:38:54.129Z,99.99
2018-08-12T00:40:25.672Z,99.99
2018-08-12T00:41:57.239Z,99.99
2018-08-12T00:43:28.807Z,99.99
2018-08-12T00:45:00.375Z,99.99
2018-08-12T00:46:31.942Z,99.99
2018-08-12T00:48:03.660Z,99.99
2018-08-12T00:49:35.079Z,99.99
2018-08-12T00:51:06.720Z,99.99
2018-08-12T00:52:38.212Z,99.99
2018-08-12T00:54:09.779Z,99.99
2018-08-12T00:55:41.347Z,99.99
2018-08-12T00:57:12.915Z,99.99
2018-08-12T00:58:44.483Z,99.99
2018-08-12T01:00:16.051Z,99.99
2018-08-12T01:01:47.618Z,99.99
2018-08-12T01:03:19.185Z,99.99
2018-08-12T01:04:50.754Z,99.99
2018-08-12T01:06:22.471Z,99.99
2018-08-12T01:07:53.888Z,99.99
2018-08-12T01:09:25.455Z,99.99
2018-08-12T01:10:57.023Z,99.99
2018-08-12T01:12:28.591Z,99.99
2018-08-12T01:14:00.158Z,99.99
2018-08-12T01:15:31.727Z,99.99
2018-08-12T01:17:03.292Z,99.99
2018-08-12T01:18:34.862Z,99.99
2018-08-12T01:20:06.428Z,99.99
2018-08-12T01:21:37.994Z,99.99
2018-08-12T01:23:09.564Z,99.99
2018-08-12T01:24:41.379Z,99.99
2018-08-12T01:26:12.697Z,99.99
2018-08-12T01:27:44.265Z,99.99
2018-08-12T01:29:15.830Z,99.99
2018-08-12T01:30:47.770Z,99.99
2018-08-12T01:32:18.967Z,99.99
2018-08-12T01:33:50.532Z,99.99
2018-08-12T01:35:22.100Z,99.99
2018-08-12T01:36:53.667Z,99.99
2018-08-12T01:38:25.234Z,99.99
2018-08-12T01:39:56.804Z,99.99
2018-08-12T01:41:28.369Z,99.99
2018-08-12T01:43:00.066Z,99.99
2018-08-12T01:44:31.503Z,99.99
2018-08-12T01:46:03.071Z,99.99
2018-08-12T01:47:34.640Z,99.99
2018-08-12T01:49:06.204Z,99.99
2018-08-12T01:50:37.773Z,99.99
2018-08-12T01:52:09.339Z,99.99
2018-08-12T01:53:40.907Z,99.99
2018-08-12T01:55:12.573Z,99.99
2018-08-12T01:56:44.040Z,99.99
2018-08-12T01:58:15.607Z,99.99
2018-08-12T01:59:47.175Z,99.99
2018-08-12T02:01:18.942Z,99.99
2018-08-12T02:02:50.309Z,99.99
2018-08-12T02:04:21.876Z,99.99
2018-08-12T02:05:53.444Z,99.99
2018-08-12T02:07:25.011Z,99.99
2018-08-12T02:08:56.579Z,99.99
2018-08-12T02:10:28.145Z,99.99
2018-08-12T02:11:59.713Z,99.99
2018-08-12T02:13:31.280Z,99.99
2018-08-12T02:15:02.847Z,99.99
2018-08-12T02:16:34.414Z,99.99
2018-08-12T02:18:05.983Z,99.99
2018-08-12T02:19:37.699Z,99.99
2018-08-12T02:21:09.116Z,99.99
2018-08-12T02:22:40.684Z,99.99
2018-08-12T02:24:12.254Z,99.99
2018-08-12T02:25:43.819Z,99.99
2018-08-12T02:27:15.386Z,99.99
2018-08-12T02:28:46.952Z,99.99
2018-08-12T02:30:18.521Z,99.99
2018-08-12T02:31:50.087Z,99.99
2018-08-12T02:33:21.655Z,99.99
2018-08-12T02:34:53.221Z,99.99
2018-08-12T02:36:24.788Z,99.99
2018-08-12T02:37:56.557Z,99.99
2018-08-12T02:39:27.924Z,99.99
2018-08-12T02:40:59.491Z,99.99
2018-08-12T02:42:31.058Z,99.99
2018-08-12T02:44:02.634Z,99.99
2018-08-12T02:45:34.194Z,99.99
2018-08-12T02:47:05.759Z,99.99
2018-08-12T02:48:37.327Z,99.99
2018-08-12T02:50:08.894Z,99.99
2018-08-12T02:51:40.461Z,99.99
2018-08-12T02:53:12.031Z,99.99
2018-08-12T02:54:43.597Z,99.99
2018-08-12T02:56:15.414Z,99.99
2018-08-12T02:57:46.734Z,99.99
2018-08-12T02:59:18.301Z,99.99
2018-08-12T03:00:49.865Z,99.99
2018-08-12T03:02:21.683Z,99.99
2018-08-12T03:03:52.999Z,99.99
2018-08-12T03:05:24.569Z,99.99
2018-08-12T03:06:56.132Z,99.99
2018-08-12T03:08:27.700Z,99.99
2018-08-12T03:09:59.267Z,99.99
2018-08-12T03:11:30.834Z,99.99
2018-08-12T03:13:02.401Z,99.99
2018-08-12T03:14:34.119Z,99.99
2018-08-12T03:16:05.535Z,99.99
2018-08-12T03:17:37.101Z,99.99
2018-08-12T03:19:08.670Z,99.99
2018-08-12T03:20:40.236Z,99.99
2018-08-12T03:22:11.805Z,99.99
2018-08-12T03:23:48.528Z,99.99
2018-08-12T03:25:14.935Z,99.99
2018-08-12T03:26:46.603Z,99.99
2018-08-12T03:28:18.070Z,99.99
2018-08-12T03:29:49.637Z,99.99
2018-08-12T03:31:21.205Z,99.99
2018-08-12T03:32:53.172Z,99.99
2018-08-12T03:34:24.338Z,99.99
2018-08-12T03:35:55.904Z,99.99
2018-08-12T03:37:27.471Z,99.99
2018-08-12T03:38:59.049Z,99.99
2018-08-12T03:40:30.617Z,99.99
2018-08-12T03:42:02.172Z,99.99
2018-08-12T03:43:33.738Z,99.99
2018-08-12T03:45:05.308Z,99.99
2018-08-12T03:46:36.872Z,99.99
2018-08-12T03:48:08.442Z,99.99
2018-08-12T03:49:40.005Z,99.99
2018-08-12T03:51:11.691Z,99.99
2018-08-12T03:52:43.138Z,99.99
2018-08-12T03:54:14.708Z,99.99
2018-08-12T03:55:46.273Z,99.99
2018-08-12T03:57:17.941Z,99.99
2018-08-12T03:58:49.414Z,99.99
2018-08-12T04:00:20.972Z,99.99
2018-08-12T04:01:52.539Z,99.99
2018-08-12T04:03:24.897Z,99.99
2018-08-12T04:04:55.687Z,99.99
2018-08-12T04:06:27.237Z,99.99
2018-08-12T04:07:58.804Z,99.99
2018-08-12T04:09:30.470Z,99.99
2018-08-12T04:11:01.937Z,99.99
2018-08-12T04:12:33.509Z,99.99
2018-08-12T04:14:05.074Z,99.99
2018-08-12T04:15:36.639Z,99.99
2018-08-12T04:17:08.206Z,99.99
2018-08-12T04:18:39.769Z,99.99
2018-08-12T04:20:11.337Z,99.99
2018-08-12T04:21:42.901Z,99.99
2018-08-12T04:23:14.468Z,99.99
2018-08-12T04:24:46.035Z,99.99
2018-08-12T04:26:17.602Z,99.99
2018-08-12T04:27:49.420Z,99.99
2018-08-12T04:29:20.733Z,99.99
2018-08-12T04:30:52.299Z,99.99
2018-08-12T04:32:23.866Z,99.99
2018-08-12T04:33:55.682Z,99.99
2018-08-12T04:35:26.998Z,99.99
2018-08-12T04:36:58.564Z,99.99
2018-08-12T04:38:30.131Z,99.99
2018-08-12T04:40:01.697Z,99.99
2018-08-12T04:41:33.266Z,99.99
2018-08-12T04:43:04.835Z,99.99
2018-08-12T04:44:36.395Z,99.99
2018-08-12T04:46:08.138Z,99.99
2018-08-12T04:47:39.532Z,99.99
2018-08-12T04:49:11.094Z,99.99
2018-08-12T04:50:42.661Z,99.99
2018-08-12T04:52:14.225Z,99.99
2018-08-12T04:53:45.792Z,99.99
2018-08-12T04:55:17.357Z,99.99
2018-08-12T04:56:48.924Z,99.99
2018-08-12T04:58:20.590Z,99.99
2018-08-12T04:59:52.056Z,99.99
2018-08-12T05:01:23.622Z,99.99
2018-08-12T05:02:55.188Z,99.99
2018-08-12T05:04:27.005Z,99.99
2018-08-12T05:05:58.320Z,99.99
2018-08-12T05:07:29.886Z,99.99
2018-08-12T05:09:01.468Z,99.99
2018-08-12T05:10:33.018Z,99.99
2018-08-12T05:12:04.584Z,99.99
2018-08-12T05:13:36.150Z,99.99
2018-08-12T05:15:07.716Z,99.99
2018-08-12T05:16:39.283Z,99.99
2018-08-12T05:18:10.850Z,99.99
2018-08-12T05:19:42.415Z,99.99
2018-08-12T05:21:13.992Z,99.99
2018-08-12T05:22:45.703Z,99.99
2018-08-12T05:24:17.112Z,99.99
2018-08-12T05:25:48.679Z,99.99
2018-08-12T05:27:20.245Z,99.99
2018-08-12T05:28:51.911Z,99.99
2018-08-12T05:30:23.378Z,99.99
2018-08-12T05:31:54.944Z,99.99
2018-08-12T05:33:26.509Z,99.99
2018-08-12T05:34:58.177Z,99.99
2018-08-12T05:36:29.641Z,99.99
2018-08-12T05:38:01.208Z,99.99
2018-08-12T05:39:32.773Z,99.99
2018-08-12T05:41:04.590Z,99.99
2018-08-12T05:42:35.905Z,99.99
2018-08-12T05:44:07.472Z,99.99
2018-08-12T05:45:39.038Z,99.99
2018-08-12T05:47:10.704Z,99.99
2018-08-12T05:48:42.171Z,99.99
2018-08-12T05:50:13.736Z,99.99
2018-08-12T05:51:45.308Z,99.99
2018-08-12T05:53:16.868Z,99.99
2018-08-12T05:54:48.435Z,99.99
2018-08-12T05:56:20.000Z,99.99
2018-08-12T05:57:51.571Z,99.99
2018-08-12T05:59:23.342Z,99.99
2018-08-12T06:00:54.699Z,99.99
2018-08-12T06:02:26.265Z,99.99
2018-08-12T06:03:57.847Z,99.99
2018-08-12T06:05:29.397Z,99.99
2018-08-12T06:07:00.964Z,99.99
2018-08-12T06:08:32.530Z,99.99
2018-08-12T06:10:04.099Z,99.99
2018-08-12T06:11:35.663Z,99.99
2018-08-12T06:13:07.229Z,99.99
2018-08-12T06:14:38.796Z,99.99
2018-08-12T06:16:10.365Z,99.99
2018-08-12T06:17:42.081Z,99.99
2018-08-12T06:19:13.494Z,99.99
2018-08-12T06:20:45.061Z,99.99
2018-08-12T06:22:16.628Z,99.99
2018-08-12T06:23:48.193Z,99.99
2018-08-12T06:25:19.763Z,99.99
2018-08-12T06:26:51.326Z,99.99
2018-08-12T06:28:22.892Z,99.99
2018-08-12T06:29:54.559Z,99.99
2018-08-12T06:31:26.080Z,99.99
2018-08-12T06:32:57.593Z,99.99
2018-08-12T06:34:29.194Z,99.99
2018-08-12T06:36:01.075Z,99.99
2018-08-12T06:37:32.290Z,99.99
2018-08-12T06:39:03.857Z,99.99
2018-08-12T06:40:35.423Z,99.99
2018-08-12T06:42:07.093Z,99.99
2018-08-12T06:43:38.556Z,99.99
2018-08-12T06:45:10.125Z,99.99
2018-08-12T06:46:41.689Z,99.99
2018-08-12T06:48:13.355Z,99.99
2018-08-12T06:49:44.820Z,99.99
2018-08-12T06:51:16.389Z,99.99
2018-08-12T06:52:47.953Z,99.99
2018-08-12T06:54:19.769Z,99.99
2018-08-12T06:55:51.085Z,99.99
2018-08-12T06:57:22.651Z,99.99
2018-08-12T06:58:54.217Z,99.99
2018-08-12T07:00:25.940Z,99.99
2018-08-12T07:01:57.349Z,99.99
2018-08-12T07:03:28.915Z,99.99
2018-08-12T07:05:00.484Z,99.99
2018-08-12T07:06:32.248Z,99.99
2018-08-12T07:08:03.613Z,99.99
2018-08-12T07:09:35.180Z,99.99
2018-08-12T07:11:06.746Z,99.99
2018-08-12T07:12:38.565Z,99.99
2018-08-12T07:14:09.876Z,99.99
2018-08-12T07:15:41.443Z,99.99
2018-08-12T07:17:13.009Z,99.99
2018-08-12T07:18:44.675Z,99.99
2018-08-12T07:20:16.141Z,99.99
2018-08-12T07:21:47.708Z,99.99
2018-08-12T07:23:19.276Z,99.99
2018-08-12T07:24:51.027Z,99.99
2018-08-12T07:26:22.406Z,99.99
2018-08-12T07:27:53.974Z,99.99
2018-08-12T07:29:25.541Z,99.99
2018-08-12T07:30:57.371Z,99.99
2018-08-12T07:32:28.668Z,99.99
2018-08-12T07:34:00.235Z,99.99
2018-08-12T07:35:31.800Z,99.99
2018-08-12T07:37:03.616Z,99.99
2018-08-12T07:38:34.998Z,99.99
2018-08-12T07:40:06.498Z,99.99
2018-08-12T07:41:38.064Z,99.99
2018-08-12T07:43:09.630Z,99.99
2018-08-12T07:44:41.197Z,99.99
2018-08-12T07:46:12.761Z,99.99
2018-08-12T07:47:44.327Z,99.99
2018-08-12T07:49:15.993Z,99.99
2018-08-12T07:50:47.458Z,99.99
2018-08-12T07:52:19.024Z,99.99
2018-08-12T07:53:50.593Z,99.99
2018-08-12T07:55:22.157Z,99.99
2018-08-12T07:56:53.722Z,99.99
2018-08-12T07:58:25.289Z,99.99
2018-08-12T07:59:56.854Z,99.99
2018-08-12T08:01:28.523Z,99.99
2018-08-12T08:02:59.986Z,99.99
2018-08-12T08:04:31.552Z,99.99
2018-08-12T08:06:03.117Z,99.99
2018-08-12T08:07:35.034Z,99.99
2018-08-12T08:09:06.259Z,99.99
2018-08-12T08:10:37.815Z,99.99
2018-08-12T08:12:09.381Z,99.99
2018-08-12T08:13:40.946Z,99.99
2018-08-12T08:15:12.512Z,99.99
2018-08-12T08:16:44.080Z,99.99
2018-08-12T08:18:15.644Z,99.99
2018-08-12T08:19:47.218Z,99.99
2018-08-12T08:21:18.776Z,99.99
2018-08-12T08:22:50.347Z,99.99
2018-08-12T08:24:21.908Z,99.99
2018-08-12T08:25:53.723Z,99.99
2018-08-12T08:27:25.039Z,99.99
2018-08-12T08:28:56.605Z,99.99
2018-08-12T08:30:28.171Z,99.99
2018-08-12T08:32:00.141Z,99.99
2018-08-12T08:33:31.302Z,99.99
2018-08-12T08:35:02.868Z,99.99
2018-08-12T08:36:34.433Z,99.99
2018-08-12T08:38:06.027Z,99.99
2018-08-12T08:39:37.566Z,99.99
2018-08-12T08:41:09.132Z,99.99
2018-08-12T08:42:40.698Z,99.99
2018-08-12T08:44:12.364Z,99.99
2018-08-12T08:45:43.831Z,99.99
2018-08-12T08:47:15.396Z,99.99
2018-08-12T08:48:46.963Z,99.99
2018-08-12T08:50:18.533Z,99.99
2018-08-12T08:51:50.094Z,99.99
2018-08-12T08:53:21.661Z,99.99
2018-08-12T08:54:53.226Z,99.99
2018-08-12T08:56:24.794Z,99.99
2018-08-12T08:57:56.359Z,99.99
2018-08-12T08:59:27.929Z,99.99
2018-08-12T09:00:59.492Z,99.99
2018-08-12T09:02:31.559Z,99.99
2018-08-12T09:04:02.623Z,99.99
2018-08-12T09:05:34.191Z,99.99
2018-08-12T09:07:05.757Z,99.99
2018-08-12T09:08:37.861Z,99.99
2018-08-12T09:10:08.889Z,99.99
2018-08-12T09:11:40.457Z,99.99
2018-08-12T09:13:12.028Z,99.99
2018-08-12T09:14:43.590Z,99.99
2018-08-12T09:16:15.156Z,99.99
2018-08-12T09:17:46.723Z,99.99
2018-08-12T09:19:18.290Z,99.99
2018-08-12T09:20:49.957Z,99.99
2018-08-12T09:22:21.424Z,99.99
2018-08-12T09:23:53.031Z,99.99
2018-08-12T09:25:24.558Z,99.99
2018-08-12T09:26:56.225Z,99.99
2018-08-12T09:28:27.692Z,99.99
2018-08-12T09:29:59.260Z,99.99
2018-08-12T09:31:30.826Z,99.99
2018-08-12T09:33:02.494Z,99.99
2018-08-12T09:34:33.960Z,99.99
2018-08-12T09:36:05.529Z,99.99
2018-08-12T09:37:37.094Z,99.99
2018-08-12T09:39:09.062Z,99.99
2018-08-12T09:40:40.229Z,99.99
2018-08-12T09:42:11.797Z,99.99
2018-08-12T09:43:43.364Z,99.99
2018-08-12T09:45:14.930Z,99.99
2018-08-12T09:46:46.498Z,99.99
2018-08-12T09:48:18.066Z,99.99
2018-08-12T09:49:49.636Z,99.99
2018-08-12T09:51:21.251Z,99.99
2018-08-12T09:52:52.768Z,99.99
2018-08-12T09:54:24.335Z,99.99
2018-08-12T09:55:55.902Z,99.99
2018-08-12T09:57:27.570Z,99.99
2018-08-12T09:58:59.038Z,99.99
2018-08-12T10:00:30.607Z,99.99
2018-08-12T10:02:02.173Z,99.99
2018-08-12T10:03:33.842Z,99.99
2018-08-12T10:05:05.308Z,99.99
2018-08-12T10:06:36.876Z,99.99
2018-08-12T10:08:08.444Z,99.99
2018-08-12T10:09:40.014Z,99.99
2018-08-12T10:11:11.581Z,99.99
2018-08-12T10:12:43.154Z,99.99
2018-08-12T10:14:14.715Z,99.99
2018-08-12T10:15:46.435Z,99.99
2018-08-12T10:17:17.851Z,99.99
2018-08-12T10:18:50.071Z,99.99
2018-08-12T10:20:20.987Z,99.99
2018-08-12T10:21:52.557Z,99.99
2018-08-12T10:23:24.123Z,99.99
2018-08-12T10:24:55.692Z,99.99
2018-08-12T10:26:27.260Z,99.99
2018-08-12T10:29:30.398Z,99.99
2018-08-12T10:31:01.966Z,99.99
2018-08-12T10:32:33.533Z,99.99
2018-08-12T10:34:05.102Z,99.99
2018-08-12T10:35:36.922Z,99.99
2018-08-12T10:37:08.239Z,99.99
2018-08-12T10:38:39.809Z,99.99
2018-08-12T10:40:11.376Z,99.99
2018-08-12T10:41:43.045Z,99.99
2018-08-12T10:43:15.050Z,99.99
2018-08-12T10:44:46.081Z,99.99
2018-08-12T10:46:17.650Z,99.99
2018-08-12T10:47:49.218Z,99.99
2018-08-12T10:49:20.786Z,99.99
2018-08-12T10:50:52.526Z,99.99
2018-08-12T10:52:23.927Z,99.99
2018-08-12T10:53:56.099Z,99.99
2018-08-12T10:55:27.061Z,99.99
2018-08-12T10:56:58.634Z,99.99
2018-08-12T10:58:30.198Z,99.99
2018-08-12T11:00:01.870Z,99.99
2018-08-12T11:01:33.336Z,99.99
2018-08-12T11:03:04.905Z,99.99
2018-08-12T11:04:36.777Z,99.99
2018-08-12T11:06:08.143Z,99.99
2018-08-12T11:07:40.553Z,99.99
2018-08-12T11:09:11.185Z,99.99
2018-08-12T11:10:42.750Z,99.99
2018-08-12T11:12:14.746Z,99.99
2018-08-12T11:13:45.889Z,99.99
2018-08-12T11:15:17.460Z,99.99
2018-08-12T11:16:49.231Z,99.99
2018-08-12T11:18:20.597Z,99.99
2018-08-12T11:19:52.167Z,99.99
2018-08-12T11:21:23.738Z,99.99
2018-08-12T11:24:26.881Z,99.99
2018-08-12T11:25:58.750Z,99.99
2018-08-12T11:29:01.608Z,99.99
2018-08-12T11:32:04.829Z,99.99
2018-08-12T11:33:36.603Z,99.99
2018-08-12T11:35:07.871Z,99.99
2018-08-12T11:38:11.014Z,99.99
2018-08-12T11:39:42.788Z,99.99
2018-08-12T11:41:14.373Z,99.99
2018-08-12T11:42:45.729Z,99.99
2018-08-12T11:44:17.551Z,99.99
2018-08-12T11:45:48.874Z,99.99
2018-08-12T11:47:20.502Z,99.99
2018-08-12T11:48:52.017Z,99.99
2018-08-12T11:50:23.891Z,99.99
2018-08-12T11:51:55.160Z,99.99
2018-08-12T11:53:26.732Z,99.99
2018-08-12T11:54:58.304Z,99.99
2018-08-12T11:56:29.875Z,99.99
2018-08-12T11:58:01.447Z,99.99
2018-08-12T11:59:33.554Z,99.99
2018-08-12T12:01:04.794Z,99.99
2018-08-12T12:02:36.162Z,99.99
2018-08-12T12:04:07.733Z,99.99
2018-08-12T12:05:39.305Z,99.99
2018-08-12T12:07:10.882Z,99.99
2018-08-12T12:08:43.001Z,99.99
2018-08-12T12:10:14.019Z,99.99
2018-08-12T12:11:46.097Z,99.99
2018-08-12T12:13:17.162Z,99.99
2018-08-12T12:14:48.832Z,99.99
2018-08-12T12:16:20.304Z,98.91
2018-08-12T12:17:51.879Z,98.95
2018-08-12T12:19:23.448Z,98.76
2018-08-12T12:22:26.795Z,98.61
2018-08-12T12:25:29.784Z,99.10
2018-08-12T12:27:01.310Z,99.15
2018-08-12T12:28:33.033Z,98.57
2018-08-12T12:30:04.455Z,98.38
2018-08-12T12:34:39.711Z,98.61
2018-08-12T12:36:11.181Z,98.61
2018-08-12T12:37:42.320Z,99.19
2018-08-12T12:42:17.239Z,99.48
2018-08-12T12:43:49.351Z,99.86
2018-08-12T12:46:51.754Z,97.71
2018-08-12T12:48:23.630Z,97.71
2018-08-12T12:49:54.901Z,97.52
2018-08-12T12:51:26.473Z,98.00
2018-08-12T12:52:58.249Z,99.05
2018-08-12T12:54:29.626Z,97.90
2018-08-12T12:56:01.194Z,97.56
2018-08-12T12:57:33.302Z,98.47
2018-08-12T12:59:04.880Z,97.14
2018-08-12T13:00:35.914Z,95.51
2018-08-12T13:02:07.486Z,95.98
2018-08-12T13:03:39.262Z,96.94
2018-08-12T13:06:42.661Z,94.50
2018-08-12T13:08:13.780Z,91.72
2018-08-12T13:09:45.355Z,90.04
2018-08-12T13:12:48.809Z,91.82
2018-08-12T13:14:20.286Z,91.86
2018-08-12T13:15:52.190Z,92.97
2018-08-12T13:17:23.231Z,91.57
2018-08-12T13:18:54.856Z,86.54
2018-08-12T13:20:26.991Z,86.14
2018-08-12T13:21:58.498Z,84.12
2018-08-12T13:23:29.538Z,84.89
2018-08-12T13:25:01.467Z,85.91
2018-08-12T13:26:32.694Z,86.48
2018-08-12T13:29:36.153Z,88.07
2018-08-12T13:31:07.427Z,89.51
2018-08-12T13:34:10.786Z,89.41
2018-08-12T13:35:42.161Z,88.55
2018-08-12T13:37:13.736Z,89.32
2018-08-12T13:38:45.617Z,89.70
2018-08-12T13:40:16.894Z,89.89
2018-08-12T13:41:48.670Z,88.55
2018-08-12T13:43:20.833Z,88.55
2018-08-12T13:44:51.622Z,88.45
2018-08-12T13:46:23.400Z,88.74
2018-08-12T13:47:54.773Z,87.82
2018-08-12T13:49:26.351Z,85.57
2018-08-12T13:50:57.943Z,86.81
2018-08-12T13:52:29.506Z,86.54
2018-08-12T13:54:01.284Z,88.41
2018-08-12T13:58:35.968Z,88.59
2018-08-12T14:00:07.388Z,87.78
2018-08-12T14:03:10.745Z,85.62
2018-08-12T14:06:13.901Z,85.91
2018-08-12T14:07:45.274Z,85.71
2018-08-12T14:09:17.056Z,85.28
2018-08-12T14:10:48.428Z,84.60
2018-08-12T14:12:20.108Z,84.03
2018-08-12T14:13:51.593Z,81.86
2018-08-12T14:15:23.160Z,77.34
2018-08-12T14:16:55.041Z,69.29
2018-08-12T14:18:26.417Z,67.94
2018-08-12T14:19:57.896Z,73.07
2018-08-12T14:21:29.533Z,75.21
2018-08-12T14:23:01.056Z,76.56
2018-08-12T14:26:04.266Z,79.02
2018-08-12T14:27:36.105Z,80.96
2018-08-12T14:29:07.375Z,80.86
2018-08-12T14:32:10.536Z,76.44
2018-08-12T14:35:13.692Z,68.19
2018-08-12T14:36:45.273Z,67.00
2018-08-12T14:38:17.540Z,68.55
2018-08-12T14:39:48.435Z,69.74
2018-08-12T14:41:20.220Z,65.69
2018-08-12T14:42:51.801Z,66.85
2018-08-12T14:44:23.484Z,68.42
2018-08-12T14:45:54.765Z,66.59
2018-08-12T14:47:26.346Z,64.66
2018-08-12T14:50:29.716Z,65.63
2018-08-12T14:52:01.099Z,66.72
2018-08-12T14:53:32.678Z,66.55
2018-08-12T14:55:04.265Z,67.46
2018-08-12T14:58:07.881Z,63.85
2018-08-12T15:01:10.594Z,65.85
2018-08-12T15:02:42.178Z,69.15
2018-08-12T15:04:13.762Z,69.95
2018-08-12T15:05:45.345Z,72.13
2018-08-12T15:07:17.051Z,74.88
2018-08-12T15:08:48.513Z,76.48
2018-08-12T15:11:51.679Z,70.50
2018-08-12T15:14:55.056Z,62.95
2018-08-12T15:16:26.433Z,62.70
2018-08-12T15:17:58.414Z,64.31
2018-08-12T15:19:29.599Z,68.84
2018-08-12T15:21:01.181Z,68.64
2018-08-12T15:24:04.449Z,68.80
2018-08-12T15:25:36.464Z,71.65
2018-08-12T15:27:07.510Z,70.88
2018-08-12T15:28:39.659Z,70.98
2018-08-12T15:31:42.253Z,70.47
2018-08-12T15:33:14.139Z,66.39
2018-08-12T15:36:17.065Z,69.67
2018-08-12T15:37:48.695Z,68.00
2018-08-12T15:39:20.468Z,64.50
2018-08-12T15:42:23.394Z,61.03
2018-08-12T15:43:54.909Z,66.55
2018-08-12T15:45:26.493Z,67.90
2018-08-12T15:46:58.279Z,65.37
2018-08-12T15:50:01.784Z,68.54
2018-08-12T15:51:32.826Z,69.73
2018-08-12T15:53:04.409Z,68.26
2018-08-12T15:54:35.991Z,72.64
2018-08-12T15:57:39.255Z,68.38
2018-08-12T15:59:10.737Z,64.43
2018-08-12T16:02:14.204Z,64.11
2018-08-12T16:03:45.789Z,60.67
2018-08-12T16:05:17.065Z,58.51
2018-08-12T16:06:48.950Z,61.12
2018-08-12T16:08:20.229Z,59.25
2018-08-12T16:09:51.861Z,59.41
2018-08-12T16:12:54.976Z,60.35
2018-08-12T16:14:26.560Z,58.54
2018-08-12T16:15:58.476Z,60.38
2018-08-12T16:17:29.726Z,60.19
2018-08-12T16:20:32.902Z,59.31
2018-08-12T16:23:36.165Z,53.75
2018-08-12T16:25:07.645Z,53.36
2018-08-12T16:26:39.229Z,54.43
2018-08-12T16:28:10.813Z,56.51
2018-08-12T16:29:42.400Z,65.66
2018-08-12T16:31:14.720Z,67.97
2018-08-12T16:32:45.569Z,67.42
2018-08-12T16:34:17.149Z,66.88
2018-08-12T16:35:49.420Z,66.82
2018-08-12T16:37:20.320Z,67.16
2018-08-12T16:38:52.202Z,70.65
2018-08-12T16:43:26.643Z,69.44
2018-08-12T16:46:29.899Z,63.53
2018-08-12T16:48:01.389Z,58.40
2018-08-12T16:52:36.287Z,64.24
2018-08-12T16:54:07.718Z,62.08
2018-08-12T16:57:10.885Z,72.73
2018-08-12T16:58:43.885Z,76.54
2018-08-12T17:00:14.053Z,76.29
2018-08-12T17:01:45.638Z,70.83
2018-08-12T17:03:17.522Z,64.28
2018-08-12T17:04:48.802Z,62.41
2018-08-12T17:06:20.584Z,62.54
2018-08-12T17:09:23.546Z,62.54
2018-08-12T17:10:55.431Z,62.60
2018-08-12T17:12:26.710Z,62.63
2018-08-12T17:13:58.292Z,62.70
2018-08-12T17:15:29.873Z,61.63
2018-08-12T17:18:33.037Z,60.31
2018-08-12T17:20:04.620Z,58.02
2018-08-12T17:24:39.491Z,54.43
2018-08-12T17:26:10.949Z,54.27
2018-08-12T17:27:42.532Z,55.11
2018-08-12T17:29:14.318Z,57.31
2018-08-12T17:32:17.532Z,52.03
2018-08-12T17:33:48.866Z,50.50
2018-08-12T17:35:20.455Z,54.80
2018-08-12T17:36:52.032Z,62.35
2018-08-12T17:39:55.200Z,69.79
2018-08-12T17:41:26.991Z,73.21
2018-08-12T17:42:58.373Z,72.77
2018-08-12T17:44:29.947Z,67.97
2018-08-12T17:46:01.611Z,71.08
2018-08-12T17:47:33.111Z,70.15
2018-08-12T17:49:04.895Z,70.50
2018-08-12T17:50:36.273Z,67.23
2018-08-12T17:52:08.006Z,68.60
2018-08-12T17:55:11.176Z,69.02
2018-08-12T17:56:42.915Z,67.97
2018-08-12T17:59:45.757Z,64.56
2018-08-12T18:01:17.337Z,66.65
2018-08-12T18:02:48.917Z,63.95
2018-08-12T18:07:23.756Z,62.31
2018-08-12T18:11:58.395Z,66.55
2018-08-12T18:13:29.979Z,63.09
2018-08-12T18:15:01.620Z,58.83
2018-08-12T18:16:33.136Z,57.38
2018-08-12T18:18:04.921Z,62.51
2018-08-12T18:19:36.600Z,66.27
2018-08-12T18:21:08.180Z,64.25
2018-08-12T18:22:39.457Z,59.09
2018-08-12T18:24:11.042Z,55.53
2018-08-12T18:25:43.068Z,53.91
2018-08-12T18:28:45.778Z,56.58
2018-08-12T18:30:17.357Z,62.63
2018-08-12T18:31:48.941Z,61.47
2018-08-12T18:34:52.108Z,57.12
2018-08-12T18:36:23.678Z,57.29
2018-08-12T18:37:55.258Z,56.15
2018-08-12T18:40:58.431Z,54.93
2018-08-12T18:42:30.000Z,55.51
2018-08-12T18:44:01.783Z,54.75
2018-08-12T18:45:33.161Z,53.45
2018-08-12T18:47:04.742Z,53.33
2018-08-12T18:48:36.323Z,53.55
2018-08-12T18:50:07.916Z,53.14
2018-08-12T18:51:39.484Z,55.51
2018-08-12T18:53:11.065Z,55.51
2018-08-12T18:54:43.182Z,58.81
2018-08-12T18:56:14.632Z,63.44
2018-08-12T18:57:45.807Z,61.35
2018-08-12T18:59:17.389Z,61.19
2018-08-12T19:00:48.972Z,60.31
2018-08-12T19:02:20.799Z,62.31
2018-08-12T19:03:52.128Z,61.54
2018-08-12T19:05:23.721Z,62.54
2018-08-12T19:06:55.287Z,63.54
2018-08-12T19:08:26.971Z,66.68
2018-08-12T19:09:58.556Z,65.66
2018-08-12T19:11:30.560Z,64.02
2018-08-12T19:13:01.604Z,65.56
2018-08-12T19:14:33.282Z,69.21
2018-08-12T19:16:04.762Z,69.47
2018-08-12T19:19:08.455Z,66.17
2018-08-12T19:20:39.757Z,63.57
2018-08-12T19:22:11.074Z,62.18
2018-08-12T19:25:14.229Z,63.79
2018-08-12T19:26:46.443Z,63.63
2018-08-12T19:28:17.384Z,62.60
2018-08-12T19:29:48.965Z,62.25
2018-08-12T19:32:52.522Z,62.34
2018-08-12T19:34:23.694Z,64.11
2018-08-12T19:35:55.281Z,64.95
2018-08-12T19:37:26.849Z,71.14
2018-08-12T19:38:58.778Z,71.59
2018-08-12T19:40:30.004Z,69.73
2018-08-12T19:42:01.581Z,65.30
2018-08-12T19:43:33.155Z,62.57
2018-08-12T19:45:04.748Z,61.60
2018-08-12T19:46:36.341Z,64.50
2018-08-12T19:48:08.421Z,66.14
2018-08-12T19:49:39.461Z,71.46
2018-08-12T19:51:11.036Z,74.37
2018-08-12T19:52:42.612Z,72.13
2018-08-12T19:55:45.763Z,69.76
2018-08-12T19:57:17.589Z,70.09
2018-08-12T19:58:48.914Z,71.52
2018-08-12T20:00:20.489Z,73.15
2018-08-12T20:01:52.268Z,74.27
2018-08-12T20:03:23.738Z,73.38
2018-08-12T20:04:55.214Z,71.20
2018-08-12T20:06:26.787Z,71.36
2018-08-12T20:07:58.370Z,75.48
2018-08-12T20:09:29.934Z,78.45
2018-08-12T20:11:01.508Z,76.23
2018-08-12T20:12:33.082Z,76.34
2018-08-12T20:14:04.656Z,76.90
2018-08-12T20:15:36.384Z,76.09
2018-08-12T20:17:08.106Z,77.31
2018-08-12T20:18:39.431Z,77.34
2018-08-12T20:20:10.949Z,76.71
2018-08-12T20:21:42.520Z,76.48
2018-08-12T20:23:14.296Z,77.25
2018-08-12T20:24:45.667Z,78.84
2018-08-12T20:26:17.238Z,80.34
2018-08-12T20:27:48.913Z,81.30
2018-08-12T20:29:20.382Z,81.68
2018-08-12T20:32:23.527Z,85.44
2018-08-12T20:33:55.348Z,85.88
2018-08-12T20:35:26.669Z,88.23
2018-08-12T20:36:58.241Z,89.18
2018-08-12T20:38:29.813Z,89.86
2018-08-12T20:40:01.386Z,89.43
2018-08-12T20:41:32.954Z,90.67
2018-08-12T20:43:04.526Z,90.77
2018-08-12T20:44:36.097Z,91.44
2018-08-12T20:46:07.669Z,91.87
2018-08-12T20:47:39.237Z,91.87
2018-08-12T20:49:10.809Z,92.44
2018-08-12T20:50:42.379Z,92.16
2018-08-12T20:52:14.051Z,93.21
2018-08-12T20:53:45.521Z,93.02
2018-08-12T20:55:17.091Z,93.21
2018-08-12T20:56:48.659Z,93.93
2018-08-12T20:58:20.330Z,93.74
2018-08-12T20:59:51.800Z,94.89
2018-08-12T21:01:23.369Z,95.17
2018-08-12T21:02:54.939Z,95.27
2018-08-12T21:04:26.609Z,96.32
2018-08-12T21:05:58.079Z,96.51
2018-08-12T21:07:29.647Z,96.70
2018-08-12T21:09:01.217Z,96.89
2018-08-12T21:10:32.892Z,96.89
2018-08-12T21:12:04.480Z,97.37
2018-08-12T21:13:35.925Z,97.28
2018-08-12T21:15:07.494Z,97.42
2018-08-12T21:16:39.064Z,98.38